aviador You're here:

SCHR Decoded Metar

COCHRANE in CHILE
Report Time2018-06-21 21:00:00
UTC Time2018-06-21 21:57:12
Flight Rules mvfr MVFR
WindCalm
Visibility9999 m
Phenomena:N/A
Clouds:Overcast 025 Hf
Expected CloudBase > 400 ft AGL from Temp-Dew spread
Ceiling2,500 ft
Temp02°C (ISA -12)
Dew Point01°C (93% RH)
AAT0.2°C
QNH1001 hPa
Density Alt-397 ft
Elevation548 ft
Report Wrong Elevation
Raw Report
METAR SCHR 212100Z 00000KT 9999 OVC025 02/01 Q1001=

Extra information for SCHR:More info

Airport Information Weather charts Add Link Nearby Venues Social comments